sensor_id;sensor_type;location;lat;lon;timestamp;temperature;humidity
14555;DHT22;7364;50.870;4.722;2022-10-17T00:00:56;16.10;99.90
14555;DHT22;7364;50.870;4.722;2022-10-17T00:03:23;16.10;99.90
14555;DHT22;7364;50.870;4.722;2022-10-17T00:05:50;16.00;99.90
14555;DHT22;7364;50.870;4.722;2022-10-17T00:08:18;16.10;99.90
14555;DHT22;7364;50.870;4.722;2022-10-17T00:10:55;16.00;99.90
14555;DHT22;7364;50.870;4.722;2022-10-17T00:13:24;15.80;99.90
14555;DHT22;7364;50.870;4.722;2022-10-17T00:15:51;15.50;99.90
14555;DHT22;7364;50.870;4.722;2022-10-17T00:18:19;15.50;99.90
14555;DHT22;7364;50.870;4.722;2022-10-17T00:20:46;15.50;99.90
14555;DHT22;7364;50.870;4.722;2022-10-17T00:23:13;15.50;99.90
14555;DHT22;7364;50.870;4.722;2022-10-17T00:25:40;15.50;99.90
14555;DHT22;7364;50.870;4.722;2022-10-17T00:28:08;15.70;99.90
14555;DHT22;7364;50.870;4.722;2022-10-17T00:30:37;15.60;99.90
14555;DHT22;7364;50.870;4.722;2022-10-17T00:33:05;15.50;99.90
14555;DHT22;7364;50.870;4.722;2022-10-17T00:35:32;15.60;99.90
14555;DHT22;7364;50.870;4.722;2022-10-17T00:37:59;15.50;99.90
14555;DHT22;7364;50.870;4.722;2022-10-17T00:40:26;15.50;99.90
14555;DHT22;7364;50.870;4.722;2022-10-17T00:42:53;15.60;99.90
14555;DHT22;7364;50.870;4.722;2022-10-17T00:45:23;15.70;99.90
14555;DHT22;7364;50.870;4.722;2022-10-17T00:47:55;15.90;99.90
14555;DHT22;7364;50.870;4.722;2022-10-17T00:50:24;16.00;99.90
14555;DHT22;7364;50.870;4.722;2022-10-17T00:52:52;16.10;99.90
14555;DHT22;7364;50.870;4.722;2022-10-17T00:55:22;16.00;99.90
14555;DHT22;7364;50.870;4.722;2022-10-17T00:57:54;16.00;99.90
14555;DHT22;7364;50.870;4.722;2022-10-17T01:00:23;16.00;99.90
14555;DHT22;7364;50.870;4.722;2022-10-17T01:02:52;16.00;99.90
14555;DHT22;7364;50.870;4.722;2022-10-17T01:05:20;15.90;99.90
14555;DHT22;7364;50.870;4.722;2022-10-17T01:07:49;15.80;99.90
14555;DHT22;7364;50.870;4.722;2022-10-17T01:10:18;15.80;99.90
14555;DHT22;7364;50.870;4.722;2022-10-17T01:12:55;15.80;99.90
14555;DHT22;7364;50.870;4.722;2022-10-17T01:15:32;16.00;99.90
14555;DHT22;7364;50.870;4.722;2022-10-17T01:18:12;15.90;99.90
14555;DHT22;7364;50.870;4.722;2022-10-17T01:21:09;15.70;99.90
14555;DHT22;7364;50.870;4.722;2022-10-17T01:24:01;15.60;99.90
14555;DHT22;7364;50.870;4.722;2022-10-17T01:26:49;15.50;99.90
14555;DHT22;7364;50.870;4.722;2022-10-17T01:29:35;15.40;99.90
14555;DHT22;7364;50.870;4.722;2022-10-17T01:32:13;15.40;99.90
14555;DHT22;7364;50.870;4.722;2022-10-17T01:34:45;15.40;99.90
14555;DHT22;7364;50.870;4.722;2022-10-17T01:37:22;15.40;99.90
14555;DHT22;7364;50.870;4.722;2022-10-17T01:39:59;15.40;99.90
14555;DHT22;7364;50.870;4.722;2022-10-17T01:42:33;15.40;99.90
14555;DHT22;7364;50.870;4.722;2022-10-17T01:45:07;15.50;99.90
14555;DHT22;7364;50.870;4.722;2022-10-17T01:47:37;15.60;99.90
14555;DHT22;7364;50.870;4.722;2022-10-17T01:50:09;15.60;99.90
14555;DHT22;7364;50.870;4.722;2022-10-17T01:52:44;15.80;99.90
14555;DHT22;7364;50.870;4.722;2022-10-17T01:55:18;15.80;99.90
14555;DHT22;7364;50.870;4.722;2022-10-17T01:57:49;15.90;99.90
14555;DHT22;7364;50.870;4.722;2022-10-17T02:00:20;16.00;99.90
14555;DHT22;7364;50.870;4.722;2022-10-17T02:02:52;16.00;99.90
14555;DHT22;7364;50.870;4.722;2022-10-17T02:05:25;16.00;99.90
14555;DHT22;7364;50.870;4.722;2022-10-17T02:07:56;16.10;99.90
14555;DHT22;7364;50.870;4.722;2022-10-17T02:10:29;16.10;99.90
14555;DHT22;7364;50.870;4.722;2022-10-17T02:13:03;16.20;99.90
14555;DHT22;7364;50.870;4.722;2022-10-17T02:15:48;16.20;99.90
14555;DHT22;7364;50.870;4.722;2022-10-17T02:18:34;16.20;99.90
14555;DHT22;7364;50.870;4.722;2022-10-17T02:21:08;16.20;99.90
14555;DHT22;7364;50.870;4.722;2022-10-17T02:23:47;16.30;99.90
14555;DHT22;7364;50.870;4.722;2022-10-17T02:26:23;16.30;99.90
14555;DHT22;7364;50.870;4.722;2022-10-17T02:29:02;16.30;99.90
14555;DHT22;7364;50.870;4.722;2022-10-17T02:31:37;16.30;99.90
14555;DHT22;7364;50.870;4.722;2022-10-17T02:34:10;16.40;99.90
14555;DHT22;7364;50.870;4.722;2022-10-17T02:36:42;16.40;99.90
14555;DHT22;7364;50.870;4.722;2022-10-17T02:39:12;16.40;99.90
14555;DHT22;7364;50.870;4.722;2022-10-17T02:41:40;16.40;99.90
14555;DHT22;7364;50.870;4.722;2022-10-17T02:44:09;16.50;99.90
14555;DHT22;7364;50.870;4.722;2022-10-17T02:46:41;16.50;99.90
14555;DHT22;7364;50.870;4.722;2022-10-17T02:49:16;16.50;99.90
14555;DHT22;7364;50.870;4.722;2022-10-17T02:51:49;16.50;99.90
14555;DHT22;7364;50.870;4.722;2022-10-17T02:54:23;16.60;99.90
14555;DHT22;7364;50.870;4.722;2022-10-17T02:56:58;16.50;99.90
14555;DHT22;7364;50.870;4.722;2022-10-17T02:59:29;16.50;99.90
14555;DHT22;7364;50.870;4.722;2022-10-17T03:02:02;16.60;99.90
14555;DHT22;7364;50.870;4.722;2022-10-17T03:04:31;16.60;99.90
14555;DHT22;7364;50.870;4.722;2022-10-17T03:06:59;16.70;99.90
14555;DHT22;7364;50.870;4.722;2022-10-17T03:09:26;16.70;99.90
14555;DHT22;7364;50.870;4.722;2022-10-17T03:11:54;16.70;99.90
14555;DHT22;7364;50.870;4.722;2022-10-17T03:14:21;16.70;99.90
14555;DHT22;7364;50.870;4.722;2022-10-17T03:16:48;16.80;99.90
14555;DHT22;7364;50.870;4.722;2022-10-17T03:19:15;16.80;99.90
14555;DHT22;7364;50.870;4.722;2022-10-17T03:21:43;16.80;99.90
14555;DHT22;7364;50.870;4.722;2022-10-17T03:24:11;16.90;99.90
14555;DHT22;7364;50.870;4.722;2022-10-17T03:26:38;16.90;99.90
14555;DHT22;7364;50.870;4.722;2022-10-17T03:29:05;16.90;99.90
14555;DHT22;7364;50.870;4.722;2022-10-17T03:31:32;16.90;99.90
14555;DHT22;7364;50.870;4.722;2022-10-17T03:34:01;16.90;99.90
14555;DHT22;7364;50.870;4.722;2022-10-17T03:36:28;16.90;99.90
14555;DHT22;7364;50.870;4.722;2022-10-17T03:38:56;17.00;99.90
14555;DHT22;7364;50.870;4.722;2022-10-17T03:41:23;16.90;99.90
14555;DHT22;7364;50.870;4.722;2022-10-17T03:43:51;16.90;99.90
14555;DHT22;7364;50.870;4.722;2022-10-17T03:46:19;16.90;99.90
14555;DHT22;7364;50.870;4.722;2022-10-17T03:48:46;16.80;99.90
14555;DHT22;7364;50.870;4.722;2022-10-17T03:51:13;16.90;99.90
14555;DHT22;7364;50.870;4.722;2022-10-17T03:53:43;16.80;99.90
14555;DHT22;7364;50.870;4.722;2022-10-17T03:56:14;16.90;99.90
14555;DHT22;7364;50.870;4.722;2022-10-17T03:58:42;16.90;99.90
14555;DHT22;7364;50.870;4.722;2022-10-17T04:01:12;16.90;99.90
14555;DHT22;7364;50.870;4.722;2022-10-17T04:03:40;16.90;99.90
14555;DHT22;7364;50.870;4.722;2022-10-17T04:06:11;16.90;99.90
14555;DHT22;7364;50.870;4.722;2022-10-17T04:08:38;16.90;99.90
14555;DHT22;7364;50.870;4.722;2022-10-17T04:11:14;16.90;99.90
14555;DHT22;7364;50.870;4.722;2022-10-17T04:13:42;16.90;99.90
14555;DHT22;7364;50.870;4.722;2022-10-17T04:16:12;16.90;99.90
14555;DHT22;7364;50.870;4.722;2022-10-17T04:18:39;16.90;99.90
14555;DHT22;7364;50.870;4.722;2022-10-17T04:21:07;16.90;99.90
14555;DHT22;7364;50.870;4.722;2022-10-17T04:23:35;16.90;99.90
14555;DHT22;7364;50.870;4.722;2022-10-17T04:26:04;17.00;99.90
14555;DHT22;7364;50.870;4.722;2022-10-17T04:28:33;16.90;99.90
14555;DHT22;7364;50.870;4.722;2022-10-17T04:31:01;17.00;99.90
14555;DHT22;7364;50.870;4.722;2022-10-17T04:33:30;16.90;99.90
14555;DHT22;7364;50.870;4.722;2022-10-17T04:35:58;17.00;99.90
14555;DHT22;7364;50.870;4.722;2022-10-17T04:38:27;17.00;99.90
14555;DHT22;7364;50.870;4.722;2022-10-17T04:40:56;17.00;99.90
14555;DHT22;7364;50.870;4.722;2022-10-17T04:43:23;16.90;99.90
14555;DHT22;7364;50.870;4.722;2022-10-17T04:45:58;16.90;99.90
14555;DHT22;7364;50.870;4.722;2022-10-17T04:48:26;16.90;99.90
14555;DHT22;7364;50.870;4.722;2022-10-17T04:50:54;16.90;99.90
14555;DHT22;7364;50.870;4.722;2022-10-17T04:53:22;16.90;99.90
14555;DHT22;7364;50.870;4.722;2022-10-17T04:55:49;16.90;99.90
14555;DHT22;7364;50.870;4.722;2022-10-17T04:58:18;16.90;99.90
14555;DHT22;7364;50.870;4.722;2022-10-17T05:00:45;16.90;99.90
14555;DHT22;7364;50.870;4.722;2022-10-17T05:03:17;17.00;99.90
14555;DHT22;7364;50.870;4.722;2022-10-17T05:05:44;17.00;99.90
14555;DHT22;7364;50.870;4.722;2022-10-17T05:08:11;17.10;99.90
14555;DHT22;7364;50.870;4.722;2022-10-17T05:10:40;17.10;99.90
14555;DHT22;7364;50.870;4.722;2022-10-17T05:13:08;17.10;99.90
14555;DHT22;7364;50.870;4.722;2022-10-17T05:15:36;17.10;99.90
14555;DHT22;7364;50.870;4.722;2022-10-17T05:18:04;17.10;99.90
14555;DHT22;7364;50.870;4.722;2022-10-17T05:20:35;17.10;99.90
14555;DHT22;7364;50.870;4.722;2022-10-17T05:23:03;17.10;99.90
14555;DHT22;7364;50.870;4.722;2022-10-17T05:25:30;17.20;99.90
14555;DHT22;7364;50.870;4.722;2022-10-17T05:27:57;17.20;99.90
14555;DHT22;7364;50.870;4.722;2022-10-17T05:30:24;17.10;99.90
14555;DHT22;7364;50.870;4.722;2022-10-17T05:32:52;17.10;99.90
14555;DHT22;7364;50.870;4.722;2022-10-17T05:35:20;17.10;99.90
14555;DHT22;7364;50.870;4.722;2022-10-17T05:37:49;17.10;99.90
14555;DHT22;7364;50.870;4.722;2022-10-17T05:40:17;17.20;99.90
14555;DHT22;7364;50.870;4.722;2022-10-17T05:42:45;17.20;99.90
14555;DHT22;7364;50.870;4.722;2022-10-17T05:45:13;17.20;99.90
14555;DHT22;7364;50.870;4.722;2022-10-17T05:47:41;17.20;99.90
14555;DHT22;7364;50.870;4.722;2022-10-17T05:50:08;17.20;99.90
14555;DHT22;7364;50.870;4.722;2022-10-17T05:52:36;17.20;99.90
14555;DHT22;7364;50.870;4.722;2022-10-17T05:55:06;17.20;99.90
14555;DHT22;7364;50.870;4.722;2022-10-17T05:57:33;17.20;99.90
14555;DHT22;7364;50.870;4.722;2022-10-17T06:00:00;17.20;99.90
14555;DHT22;7364;50.870;4.722;2022-10-17T06:02:28;17.30;99.90
14555;DHT22;7364;50.870;4.722;2022-10-17T06:04:55;17.30;99.90
14555;DHT22;7364;50.870;4.722;2022-10-17T06:07:23;17.30;99.90
14555;DHT22;7364;50.870;4.722;2022-10-17T06:09:50;17.30;99.90
14555;DHT22;7364;50.870;4.722;2022-10-17T06:12:19;17.40;99.90
14555;DHT22;7364;50.870;4.722;2022-10-17T06:14:46;17.40;99.90
14555;DHT22;7364;50.870;4.722;2022-10-17T06:17:16;17.40;99.90
14555;DHT22;7364;50.870;4.722;2022-10-17T06:19:43;17.40;99.90
14555;DHT22;7364;50.870;4.722;2022-10-17T06:22:10;17.50;99.90
14555;DHT22;7364;50.870;4.722;2022-10-17T06:24:37;17.60;99.90
14555;DHT22;7364;50.870;4.722;2022-10-17T06:27:05;17.70;99.90
14555;DHT22;7364;50.870;4.722;2022-10-17T06:29:34;17.60;99.90
14555;DHT22;7364;50.870;4.722;2022-10-17T06:32:01;17.60;99.90
14555;DHT22;7364;50.870;4.722;2022-10-17T06:34:28;17.60;99.90
14555;DHT22;7364;50.870;4.722;2022-10-17T06:36:55;17.60;99.90
14555;DHT22;7364;50.870;4.722;2022-10-17T06:39:22;17.60;99.90
14555;DHT22;7364;50.870;4.722;2022-10-17T06:41:51;17.70;99.90
14555;DHT22;7364;50.870;4.722;2022-10-17T06:44:19;17.70;99.90
14555;DHT22;7364;50.870;4.722;2022-10-17T06:46:48;17.80;99.90
14555;DHT22;7364;50.870;4.722;2022-10-17T06:49:15;17.80;99.90
14555;DHT22;7364;50.870;4.722;2022-10-17T06:51:43;17.80;99.90
14555;DHT22;7364;50.870;4.722;2022-10-17T06:54:10;17.80;99.90
14555;DHT22;7364;50.870;4.722;2022-10-17T06:56:37;17.90;99.90
14555;DHT22;7364;50.870;4.722;2022-10-17T06:59:05;18.00;99.90
14555;DHT22;7364;50.870;4.722;2022-10-17T07:01:32;18.10;99.90
14555;DHT22;7364;50.870;4.722;2022-10-17T07:04:01;18.30;99.90
14555;DHT22;7364;50.870;4.722;2022-10-17T07:06:28;18.30;99.90
14555;DHT22;7364;50.870;4.722;2022-10-17T07:08:56;18.30;99.90
14555;DHT22;7364;50.870;4.722;2022-10-17T07:11:23;18.50;99.90
14555;DHT22;7364;50.870;4.722;2022-10-17T07:13:51;18.60;99.90
14555;DHT22;7364;50.870;4.722;2022-10-17T07:16:18;18.70;99.90
14555;DHT22;7364;50.870;4.722;2022-10-17T07:18:48;18.60;99.90
14555;DHT22;7364;50.870;4.722;2022-10-17T07:21:17;18.70;99.90
14555;DHT22;7364;50.870;4.722;2022-10-17T07:23:45;18.80;99.90
14555;DHT22;7364;50.870;4.722;2022-10-17T07:26:15;18.80;99.90
14555;DHT22;7364;50.870;4.722;2022-10-17T07:28:46;19.00;99.90
14555;DHT22;7364;50.870;4.722;2022-10-17T07:31:15;19.00;99.90
14555;DHT22;7364;50.870;4.722;2022-10-17T07:33:44;19.30;99.90
14555;DHT22;7364;50.870;4.722;2022-10-17T07:36:12;19.00;99.90
14555;DHT22;7364;50.870;4.722;2022-10-17T07:38:42;19.00;99.90
14555;DHT22;7364;50.870;4.722;2022-10-17T07:41:11;19.10;99.90
14555;DHT22;7364;50.870;4.722;2022-10-17T07:43:38;19.20;99.90
14555;DHT22;7364;50.870;4.722;2022-10-17T07:46:08;19.40;99.90
14555;DHT22;7364;50.870;4.722;2022-10-17T07:48:36;19.50;99.90
14555;DHT22;7364;50.870;4.722;2022-10-17T07:51:05;19.40;99.90
14555;DHT22;7364;50.870;4.722;2022-10-17T07:53:34;19.50;99.90
14555;DHT22;7364;50.870;4.722;2022-10-17T07:56:07;19.40;99.90
14555;DHT22;7364;50.870;4.722;2022-10-17T07:58:36;19.40;99.90
14555;DHT22;7364;50.870;4.722;2022-10-17T08:01:05;19.20;99.90
14555;DHT22;7364;50.870;4.722;2022-10-17T08:03:33;19.00;99.90
14555;DHT22;7364;50.870;4.722;2022-10-17T08:06:01;18.90;99.90
14555;DHT22;7364;50.870;4.722;2022-10-17T08:08:29;18.80;99.90
14555;DHT22;7364;50.870;4.722;2022-10-17T08:11:01;18.60;99.90
14555;DHT22;7364;50.870;4.722;2022-10-17T08:13:34;18.70;99.90
14555;DHT22;7364;50.870;4.722;2022-10-17T08:16:03;18.60;99.90
14555;DHT22;7364;50.870;4.722;2022-10-17T08:18:32;18.60;99.90
14555;DHT22;7364;50.870;4.722;2022-10-17T08:20:59;18.90;99.90
14555;DHT22;7364;50.870;4.722;2022-10-17T08:23:27;19.10;99.90
14555;DHT22;7364;50.870;4.722;2022-10-17T08:25:58;19.30;99.90
14555;DHT22;7364;50.870;4.722;2022-10-17T08:28:26;19.50;99.90
14555;DHT22;7364;50.870;4.722;2022-10-17T08:31:02;19.40;99.90
14555;DHT22;7364;50.870;4.722;2022-10-17T08:33:30;19.00;99.90
14555;DHT22;7364;50.870;4.722;2022-10-17T08:35:58;18.80;99.90
14555;DHT22;7364;50.870;4.722;2022-10-17T08:38:27;18.80;99.90
14555;DHT22;7364;50.870;4.722;2022-10-17T08:40:55;18.90;99.90
14555;DHT22;7364;50.870;4.722;2022-10-17T08:43:30;18.90;99.90
14555;DHT22;7364;50.870;4.722;2022-10-17T08:46:04;19.00;99.90
14555;DHT22;7364;50.870;4.722;2022-10-17T08:48:35;19.20;99.90
14555;DHT22;7364;50.870;4.722;2022-10-17T08:51:09;18.90;99.90
14555;DHT22;7364;50.870;4.722;2022-10-17T08:53:40;18.70;99.90
14555;DHT22;7364;50.870;4.722;2022-10-17T08:56:18;18.70;99.90
14555;DHT22;7364;50.870;4.722;2022-10-17T08:58:46;18.80;99.90
14555;DHT22;7364;50.870;4.722;2022-10-17T09:01:28;19.00;99.90
14555;DHT22;7364;50.870;4.722;2022-10-17T09:07:07;18.90;99.90
14555;DHT22;7364;50.870;4.722;2022-10-17T09:09:41;18.70;99.90
14555;DHT22;7364;50.870;4.722;2022-10-17T09:12:19;18.80;99.90
14555;DHT22;7364;50.870;4.722;2022-10-17T09:15:11;18.90;99.90
14555;DHT22;7364;50.870;4.722;2022-10-17T09:17:50;19.30;99.90
14555;DHT22;7364;50.870;4.722;2022-10-17T09:20:21;19.60;99.90
14555;DHT22;7364;50.870;4.722;2022-10-17T09:22:55;19.80;99.90
14555;DHT22;7364;50.870;4.722;2022-10-17T09:25:23;19.80;99.90
14555;DHT22;7364;50.870;4.722;2022-10-17T09:28:03;19.50;99.90
14555;DHT22;7364;50.870;4.722;2022-10-17T09:30:39;19.30;99.90
14555;DHT22;7364;50.870;4.722;2022-10-17T09:33:16;19.20;99.90
14555;DHT22;7364;50.870;4.722;2022-10-17T09:35:45;19.10;99.90
14555;DHT22;7364;50.870;4.722;2022-10-17T09:38:16;19.20;99.90
14555;DHT22;7364;50.870;4.722;2022-10-17T09:40:45;19.20;99.90
14555;DHT22;7364;50.870;4.722;2022-10-17T09:43:16;19.10;99.90
14555;DHT22;7364;50.870;4.722;2022-10-17T09:45:50;19.00;99.90
14555;DHT22;7364;50.870;4.722;2022-10-17T09:48:30;18.80;99.90
14555;DHT22;7364;50.870;4.722;2022-10-17T09:51:00;18.80;99.90
14555;DHT22;7364;50.870;4.722;2022-10-17T09:53:32;18.70;99.90
14555;DHT22;7364;50.870;4.722;2022-10-17T09:56:02;18.80;99.90
14555;DHT22;7364;50.870;4.722;2022-10-17T09:58:41;18.80;99.90
14555;DHT22;7364;50.870;4.722;2022-10-17T10:01:18;18.80;99.90
14555;DHT22;7364;50.870;4.722;2022-10-17T10:03:48;18.70;99.90
14555;DHT22;7364;50.870;4.722;2022-10-17T10:06:17;18.70;99.90
14555;DHT22;7364;50.870;4.722;2022-10-17T10:08:51;18.80;99.90
14555;DHT22;7364;50.870;4.722;2022-10-17T10:11:22;18.80;99.90
14555;DHT22;7364;50.870;4.722;2022-10-17T10:13:50;18.80;99.90
14555;DHT22;7364;50.870;4.722;2022-10-17T10:16:21;18.80;99.90
14555;DHT22;7364;50.870;4.722;2022-10-17T10:18:51;18.80;99.90
14555;DHT22;7364;50.870;4.722;2022-10-17T10:21:19;18.90;99.90
14555;DHT22;7364;50.870;4.722;2022-10-17T10:24:09;19.10;99.90
14555;DHT22;7364;50.870;4.722;2022-10-17T10:26:39;19.40;99.90
14555;DHT22;7364;50.870;4.722;2022-10-17T10:29:22;19.50;99.90
14555;DHT22;7364;50.870;4.722;2022-10-17T10:31:53;19.80;99.90
14555;DHT22;7364;50.870;4.722;2022-10-17T10:34:23;20.00;99.90
14555;DHT22;7364;50.870;4.722;2022-10-17T10:36:57;20.10;99.90
14555;DHT22;7364;50.870;4.722;2022-10-17T10:39:40;20.30;99.90
14555;DHT22;7364;50.870;4.722;2022-10-17T10:42:18;20.40;99.90
14555;DHT22;7364;50.870;4.722;2022-10-17T10:44:46;20.40;99.90
14555;DHT22;7364;50.870;4.722;2022-10-17T10:47:21;20.50;99.90
14555;DHT22;7364;50.870;4.722;2022-10-17T10:50:05;20.60;99.90
14555;DHT22;7364;50.870;4.722;2022-10-17T10:52:40;20.70;99.90
14555;DHT22;7364;50.870;4.722;2022-10-17T10:55:20;21.00;99.90
14555;DHT22;7364;50.870;4.722;2022-10-17T10:57:51;21.00;99.90
14555;DHT22;7364;50.870;4.722;2022-10-17T11:00:21;20.70;99.90
14555;DHT22;7364;50.870;4.722;2022-10-17T11:02:57;20.60;99.90
14555;DHT22;7364;50.870;4.722;2022-10-17T11:05:36;20.80;99.90
14555;DHT22;7364;50.870;4.722;2022-10-17T11:08:19;20.80;99.90
14555;DHT22;7364;50.870;4.722;2022-10-17T11:11:01;20.80;99.90
14555;DHT22;7364;50.870;4.722;2022-10-17T11:13:38;20.60;99.90
14555;DHT22;7364;50.870;4.722;2022-10-17T11:16:26;20.60;99.90
14555;DHT22;7364;50.870;4.722;2022-10-17T11:19:00;20.40;99.90
14555;DHT22;7364;50.870;4.722;2022-10-17T11:21:37;20.30;99.90
14555;DHT22;7364;50.870;4.722;2022-10-17T11:24:13;20.10;99.90
14555;DHT22;7364;50.870;4.722;2022-10-17T11:26:49;20.20;99.90
14555;DHT22;7364;50.870;4.722;2022-10-17T11:29:18;20.00;99.90
14555;DHT22;7364;50.870;4.722;2022-10-17T11:31:50;19.90;99.90
14555;DHT22;7364;50.870;4.722;2022-10-17T11:34:23;19.90;99.90
14555;DHT22;7364;50.870;4.722;2022-10-17T11:36:55;19.90;99.90
14555;DHT22;7364;50.870;4.722;2022-10-17T11:39:29;20.00;99.90
14555;DHT22;7364;50.870;4.722;2022-10-17T11:42:01;19.90;99.90
14555;DHT22;7364;50.870;4.722;2022-10-17T11:44:34;19.80;99.90
14555;DHT22;7364;50.870;4.722;2022-10-17T11:47:05;19.80;99.90
14555;DHT22;7364;50.870;4.722;2022-10-17T11:49:37;19.60;99.90
14555;DHT22;7364;50.870;4.722;2022-10-17T11:52:27;19.50;99.90
14555;DHT22;7364;50.870;4.722;2022-10-17T11:55:02;19.50;99.90
14555;DHT22;7364;50.870;4.722;2022-10-17T11:57:41;19.50;99.90
14555;DHT22;7364;50.870;4.722;2022-10-17T12:00:24;19.60;99.90
14555;DHT22;7364;50.870;4.722;2022-10-17T12:03:04;19.80;99.90
14555;DHT22;7364;50.870;4.722;2022-10-17T12:05:39;20.00;99.90
14555;DHT22;7364;50.870;4.722;2022-10-17T12:08:17;20.00;99.90
14555;DHT22;7364;50.870;4.722;2022-10-17T12:10:52;19.70;99.90
14555;DHT22;7364;50.870;4.722;2022-10-17T12:13:49;20.00;99.90
14555;DHT22;7364;50.870;4.722;2022-10-17T12:16:41;20.20;99.90
14555;DHT22;7364;50.870;4.722;2022-10-17T12:19:27;20.30;99.90
14555;DHT22;7364;50.870;4.722;2022-10-17T12:22:00;20.20;99.90
14555;DHT22;7364;50.870;4.722;2022-10-17T12:24:34;20.10;99.90
14555;DHT22;7364;50.870;4.722;2022-10-17T12:27:31;20.10;99.90
14555;DHT22;7364;50.870;4.722;2022-10-17T12:30:00;19.70;99.90
14555;DHT22;7364;50.870;4.722;2022-10-17T12:32:30;19.50;99.90
14555;DHT22;7364;50.870;4.722;2022-10-17T12:34:57;19.30;99.90
14555;DHT22;7364;50.870;4.722;2022-10-17T12:40:58;19.40;99.90
14555;DHT22;7364;50.870;4.722;2022-10-17T12:43:49;19.90;99.90
14555;DHT22;7364;50.870;4.722;2022-10-17T12:46:43;20.10;99.90
14555;DHT22;7364;50.870;4.722;2022-10-17T12:49:36;20.20;99.90
14555;DHT22;7364;50.870;4.722;2022-10-17T12:54:58;19.90;99.90
14555;DHT22;7364;50.870;4.722;2022-10-17T12:57:33;19.80;99.90
14555;DHT22;7364;50.870;4.722;2022-10-17T13:00:13;19.90;99.90
14555;DHT22;7364;50.870;4.722;2022-10-17T13:02:42;19.80;99.90
14555;DHT22;7364;50.870;4.722;2022-10-17T13:05:18;19.70;99.90
14555;DHT22;7364;50.870;4.722;2022-10-17T13:07:48;19.60;99.90
14555;DHT22;7364;50.870;4.722;2022-10-17T13:10:20;19.40;99.90
14555;DHT22;7364;50.870;4.722;2022-10-17T13:12:50;19.30;99.90
14555;DHT22;7364;50.870;4.722;2022-10-17T13:15:20;19.30;99.90
14555;DHT22;7364;50.870;4.722;2022-10-17T13:18:13;19.40;99.90
14555;DHT22;7364;50.870;4.722;2022-10-17T13:20:54;19.50;99.90
14555;DHT22;7364;50.870;4.722;2022-10-17T13:23:23;19.80;99.90
14555;DHT22;7364;50.870;4.722;2022-10-17T13:26:12;20.20;99.90
14555;DHT22;7364;50.870;4.722;2022-10-17T13:28:42;20.40;99.90
14555;DHT22;7364;50.870;4.722;2022-10-17T13:31:27;20.30;99.90
14555;DHT22;7364;50.870;4.722;2022-10-17T13:33:56;20.50;99.90
14555;DHT22;7364;50.870;4.722;2022-10-17T13:36:25;20.30;99.90
14555;DHT22;7364;50.870;4.722;2022-10-17T13:38:53;20.30;99.90
14555;DHT22;7364;50.870;4.722;2022-10-17T13:41:25;20.40;99.90
14555;DHT22;7364;50.870;4.722;2022-10-17T13:43:57;20.70;99.90
14555;DHT22;7364;50.870;4.722;2022-10-17T13:46:27;20.90;99.90
14555;DHT22;7364;50.870;4.722;2022-10-17T13:48:56;20.70;99.90
14555;DHT22;7364;50.870;4.722;2022-10-17T13:51:25;20.70;99.90
14555;DHT22;7364;50.870;4.722;2022-10-17T13:53:53;21.00;99.90
14555;DHT22;7364;50.870;4.722;2022-10-17T13:56:23;21.30;99.90
14555;DHT22;7364;50.870;4.722;2022-10-17T13:58:52;21.40;99.90
14555;DHT22;7364;50.870;4.722;2022-10-17T14:01:24;21.60;99.90
14555;DHT22;7364;50.870;4.722;2022-10-17T14:03:59;21.70;99.90
14555;DHT22;7364;50.870;4.722;2022-10-17T14:06:41;21.70;99.90
14555;DHT22;7364;50.870;4.722;2022-10-17T14:09:17;21.80;99.90
14555;DHT22;7364;50.870;4.722;2022-10-17T14:11:56;21.40;99.90
14555;DHT22;7364;50.870;4.722;2022-10-17T14:14:25;21.10;99.90
14555;DHT22;7364;50.870;4.722;2022-10-17T14:17:11;20.90;99.90
14555;DHT22;7364;50.870;4.722;2022-10-17T14:19:39;20.90;99.90
14555;DHT22;7364;50.870;4.722;2022-10-17T14:22:24;20.80;99.90
14555;DHT22;7364;50.870;4.722;2022-10-17T14:24:53;20.90;99.90
14555;DHT22;7364;50.870;4.722;2022-10-17T14:27:26;20.60;99.90
14555;DHT22;7364;50.870;4.722;2022-10-17T14:29:57;20.70;99.90
14555;DHT22;7364;50.870;4.722;2022-10-17T14:32:31;20.70;99.90
14555;DHT22;7364;50.870;4.722;2022-10-17T14:35:02;20.90;99.90
14555;DHT22;7364;50.870;4.722;2022-10-17T14:37:36;20.80;99.90
14555;DHT22;7364;50.870;4.722;2022-10-17T14:40:06;20.70;99.90
14555;DHT22;7364;50.870;4.722;2022-10-17T14:42:38;20.40;99.90
14555;DHT22;7364;50.870;4.722;2022-10-17T14:45:11;20.40;99.90
14555;DHT22;7364;50.870;4.722;2022-10-17T14:47:40;20.50;99.90
14555;DHT22;7364;50.870;4.722;2022-10-17T14:50:20;20.50;99.90
14555;DHT22;7364;50.870;4.722;2022-10-17T14:53:00;20.50;99.90
14555;DHT22;7364;50.870;4.722;2022-10-17T14:55:35;20.50;99.90
14555;DHT22;7364;50.870;4.722;2022-10-17T14:58:15;20.50;99.90
14555;DHT22;7364;50.870;4.722;2022-10-17T15:00:43;20.80;99.90
14555;DHT22;7364;50.870;4.722;2022-10-17T15:03:12;20.80;99.90
14555;DHT22;7364;50.870;4.722;2022-10-17T15:05:40;20.90;99.90
14555;DHT22;7364;50.870;4.722;2022-10-17T15:08:13;20.70;99.90
14555;DHT22;7364;50.870;4.722;2022-10-17T15:10:43;20.80;99.90
14555;DHT22;7364;50.870;4.722;2022-10-17T15:13:12;20.70;99.90
14555;DHT22;7364;50.870;4.722;2022-10-17T15:15:45;20.80;99.90
14555;DHT22;7364;50.870;4.722;2022-10-17T15:18:20;20.90;99.90
14555;DHT22;7364;50.870;4.722;2022-10-17T15:20:48;21.00;99.90
14555;DHT22;7364;50.870;4.722;2022-10-17T15:23:16;21.10;99.90
14555;DHT22;7364;50.870;4.722;2022-10-17T15:25:44;21.10;99.90
14555;DHT22;7364;50.870;4.722;2022-10-17T15:28:21;21.10;99.90
14555;DHT22;7364;50.870;4.722;2022-10-17T15:30:51;21.00;99.90
14555;DHT22;7364;50.870;4.722;2022-10-17T15:33:22;20.90;99.90
14555;DHT22;7364;50.870;4.722;2022-10-17T15:35:52;20.80;99.90
14555;DHT22;7364;50.870;4.722;2022-10-17T15:38:34;20.60;99.90
14555;DHT22;7364;50.870;4.722;2022-10-17T15:41:07;20.50;99.90
14555;DHT22;7364;50.870;4.722;2022-10-17T15:43:43;20.20;99.90
14555;DHT22;7364;50.870;4.722;2022-10-17T15:46:13;20.10;99.90
14555;DHT22;7364;50.870;4.722;2022-10-17T15:48:50;20.00;99.90
14555;DHT22;7364;50.870;4.722;2022-10-17T15:51:22;19.60;99.90
14555;DHT22;7364;50.870;4.722;2022-10-17T15:53:50;19.60;99.90
14555;DHT22;7364;50.870;4.722;2022-10-17T15:56:20;19.50;99.90
14555;DHT22;7364;50.870;4.722;2022-10-17T15:58:49;19.50;99.90
14555;DHT22;7364;50.870;4.722;2022-10-17T16:01:20;19.50;99.90
14555;DHT22;7364;50.870;4.722;2022-10-17T16:03:54;19.40;99.90
14555;DHT22;7364;50.870;4.722;2022-10-17T16:06:26;19.40;99.90
14555;DHT22;7364;50.870;4.722;2022-10-17T16:08:53;19.40;99.90
14555;DHT22;7364;50.870;4.722;2022-10-17T16:11:27;19.50;99.90
14555;DHT22;7364;50.870;4.722;2022-10-17T16:13:57;19.50;99.90
14555;DHT22;7364;50.870;4.722;2022-10-17T16:16:24;19.50;99.90
14555;DHT22;7364;50.870;4.722;2022-10-17T16:18:54;19.50;99.90
14555;DHT22;7364;50.870;4.722;2022-10-17T16:21:24;19.50;99.90
14555;DHT22;7364;50.870;4.722;2022-10-17T16:23:51;19.40;99.90